Time;durP1;ratioP1;P1;durP2;ratioP2;P2;SDS_P1;SDS_P2;PMS_P1;PMS_P2;Temp;Humidity;BMP_temperature;BMP_pressure;BME280_temperature;BME280_humidity;BME280_pressure;Samples;Min_cycle;Max_cycle;Signal;HPM_P1;HPM_P2
2022/06/29 00:00:19;;;;;;;4.28;3.00;;;15.30;99.90;;;;;;5045993;28;20481;-62
2022/06/29 00:02:45;;;;;;;4.32;2.75;;;15.20;99.90;;;;;;5045781;28;20073;-62
2022/06/29 00:05:13;;;;;;;4.57;2.53;;;15.10;99.90;;;;;;5046512;28;20360;-62
2022/06/29 00:07:40;;;;;;;4.50;3.28;;;15.00;99.90;;;;;;5064025;28;20041;-62
2022/06/29 00:10:07;;;;;;;3.13;2.67;;;14.80;99.90;;;;;;5045827;28;20040;-62
2022/06/29 00:12:33;;;;;;;3.80;2.90;;;14.80;99.90;;;;;;5045288;28;20049;-62
2022/06/29 00:15:02;;;;;;;4.70;2.90;;;14.80;99.90;;;;;;5073345;28;20053;-62
2022/06/29 00:17:29;;;;;;;4.30;2.97;;;14.80;99.90;;;;;;5065139;28;20101;-62
2022/06/29 00:19:54;;;;;;;4.72;3.00;;;14.70;99.90;;;;;;5062512;28;20353;-62
2022/06/29 00:22:20;;;;;;;3.72;3.03;;;14.70;99.90;;;;;;5063370;28;20073;-62
2022/06/29 00:24:46;;;;;;;5.22;2.88;;;14.50;99.90;;;;;;5063558;28;20037;-62
2022/06/29 00:27:12;;;;;;;5.57;3.30;;;14.40;99.90;;;;;;5045860;28;20048;-62
2022/06/29 00:29:37;;;;;;;6.70;3.35;;;14.50;99.90;;;;;;5065142;28;20072;-62
2022/06/29 00:32:05;;;;;;;3.95;2.92;;;14.40;99.90;;;;;;5064190;28;20382;-62
2022/06/29 00:34:32;;;;;;;4.53;3.08;;;14.40;99.90;;;;;;5046577;28;20045;-62
2022/06/29 00:36:57;;;;;;;6.03;3.67;;;14.40;99.90;;;;;;5057649;28;20049;-62
2022/06/29 00:39:23;;;;;;;7.10;3.70;;;14.50;99.90;;;;;;5047680;28;20581;-62
2022/06/29 00:41:49;;;;;;;4.35;3.22;;;14.50;99.90;;;;;;5049504;28;20091;-62
2022/06/29 00:44:19;;;;;;;8.70;3.97;;;14.50;99.90;;;;;;5067094;28;20124;-62
2022/06/29 00:47:00;;;;;;;5.05;3.92;;;14.50;99.90;;;;;;5049022;28;20100;-62
2022/06/29 00:49:29;;;;;;;4.88;4.25;;;14.60;99.90;;;;;;5066887;28;20052;-62
2022/06/29 00:52:08;;;;;;;4.13;3.72;;;14.60;99.90;;;;;;5049016;28;20122;-62
2022/06/29 00:54:39;;;;;;;5.38;3.65;;;14.60;99.90;;;;;;5049230;28;20124;-62
2022/06/29 00:57:08;;;;;;;5.15;3.78;;;14.50;99.90;;;;;;5049093;28;20041;-62
2022/06/29 00:59:42;;;;;;;3.85;3.40;;;14.60;99.90;;;;;;5049236;28;20052;-62
2022/06/29 01:02:07;;;;;;;3.63;3.30;;;14.50;99.90;;;;;;5049574;28;20049;-62
2022/06/29 01:04:33;;;;;;;4.78;3.50;;;14.40;99.90;;;;;;5068114;28;20101;-62
2022/06/29 01:06:59;;;;;;;5.20;3.15;;;14.40;99.90;;;;;;5067914;28;20077;-62
2022/06/29 01:09:25;;;;;;;6.18;3.40;;;14.40;99.90;;;;;;5048767;28;20041;-62
2022/06/29 01:11:51;;;;;;;4.30;3.47;;;14.30;99.90;;;;;;5048821;28;20052;-62
2022/06/29 01:14:17;;;;;;;6.38;3.83;;;14.20;99.90;;;;;;5052039;28;20075;-62
2022/06/29 01:16:43;;;;;;;7.00;3.70;;;14.10;99.90;;;;;;5056270;28;20053;-62
2022/06/29 01:19:09;;;;;;;5.25;4.18;;;14.00;99.90;;;;;;5048790;28;20053;-62
2022/06/29 01:21:38;;;;;;;5.05;4.28;;;14.20;99.90;;;;;;5066442;28;20057;-62
2022/06/29 01:24:04;;;;;;;6.10;3.90;;;14.00;99.90;;;;;;5066665;28;20041;-62
2022/06/29 01:26:30;;;;;;;4.60;4.15;;;14.10;99.90;;;;;;5066560;28;20198;-62
2022/06/29 01:28:55;;;;;;;5.25;3.70;;;14.00;99.90;;;;;;5048664;28;20040;-62
2022/06/29 01:31:21;;;;;;;5.72;3.90;;;14.00;99.90;;;;;;5048677;28;20053;-62
2022/06/29 01:33:48;;;;;;;4.45;3.90;;;13.90;99.90;;;;;;5048066;28;20045;-62
2022/06/29 01:36:15;;;;;;;5.45;4.13;;;13.80;99.90;;;;;;5046163;28;20045;-62
2022/06/29 01:38:42;;;;;;;6.13;3.83;;;13.90;99.90;;;;;;5066338;28;20041;-61
2022/06/29 01:41:10;;;;;;;4.15;3.75;;;13.80;99.90;;;;;;5048449;28;20049;-62
2022/06/29 01:43:37;;;;;;;4.05;3.53;;;13.60;99.90;;;;;;5066617;28;20048;-62
2022/06/29 01:46:02;;;;;;;4.55;4.13;;;13.70;99.90;;;;;;5048596;28;20045;-61
2022/06/29 01:48:28;;;;;;;4.88;4.20;;;13.60;99.90;;;;;;5066345;28;20088;-62
2022/06/29 01:50:54;;;;;;;6.93;4.10;;;13.80;99.90;;;;;;5067311;28;20042;-61
2022/06/29 01:53:20;;;;;;;7.35;4.78;;;13.60;99.90;;;;;;5066610;28;20052;-62
2022/06/29 01:55:46;;;;;;;5.80;5.18;;;13.60;99.90;;;;;;5048901;28;20049;-62
2022/06/29 01:58:13;;;;;;;5.20;4.72;;;13.50;99.90;;;;;;5066890;28;20047;-61
2022/06/29 02:00:39;;;;;;;6.93;4.30;;;13.60;99.90;;;;;;5067349;28;20045;-62
2022/06/29 02:03:05;;;;;;;5.75;4.50;;;13.60;99.90;;;;;;5047781;28;20041;-62
2022/06/29 02:05:30;;;;;;;5.95;5.20;;;13.60;99.90;;;;;;5048071;28;20578;-62
2022/06/29 02:07:56;;;;;;;5.00;4.20;;;13.70;99.90;;;;;;5047792;28;20132;-62
2022/06/29 02:10:22;;;;;;;4.50;4.05;;;13.70;99.90;;;;;;5065612;28;20060;-61
2022/06/29 02:12:48;;;;;;;6.05;4.95;;;13.50;99.90;;;;;;5066260;28;20164;-62
2022/06/29 02:15:14;;;;;;;5.78;5.22;;;13.50;99.90;;;;;;5069321;28;20075;-62
2022/06/29 02:17:40;;;;;;;6.75;5.18;;;13.40;99.90;;;;;;5047707;28;20056;-61
2022/06/29 02:20:06;;;;;;;6.55;5.03;;;13.50;99.90;;;;;;5066176;28;20041;-62
2022/06/29 02:22:32;;;;;;;6.10;4.97;;;13.50;99.90;;;;;;5064955;28;20045;-62
2022/06/29 02:24:57;;;;;;;6.25;5.65;;;13.40;99.90;;;;;;5047152;28;20386;-62
2022/06/29 02:27:23;;;;;;;7.63;5.85;;;13.50;99.90;;;;;;5065320;28;20040;-62
2022/06/29 02:29:49;;;;;;;5.95;5.38;;;13.50;99.90;;;;;;5065621;28;20037;-62
2022/06/29 02:34:59;;;;;;;6.50;4.55;;;13.50;99.90;;;;;;5034711;28;20095;-62
2022/06/29 02:37:24;;;;;;;6.45;4.60;;;13.50;99.90;;;;;;5065000;28;20041;-61
2022/06/29 02:39:50;;;;;;;5.30;4.80;;;13.50;99.90;;;;;;5047126;28;20040;-62
2022/06/29 02:42:16;;;;;;;5.50;5.00;;;13.40;99.90;;;;;;5065206;28;20076;-62
2022/06/29 02:44:42;;;;;;;7.35;5.15;;;13.30;99.90;;;;;;5063174;28;20461;-62
2022/06/29 02:47:09;;;;;;;7.22;5.97;;;13.20;99.90;;;;;;5064939;28;20112;-62
2022/06/29 02:49:35;;;;;;;7.72;6.75;;;13.20;99.90;;;;;;5046826;28;20056;-62
2022/06/29 02:52:01;;;;;;;7.93;6.13;;;13.20;99.90;;;;;;5063990;28;20056;-61
2022/06/29 02:54:27;;;;;;;6.75;6.13;;;13.20;99.90;;;;;;5047225;28;20061;-61
2022/06/29 02:56:55;;;;;;;8.05;6.40;;;13.10;99.90;;;;;;5047797;28;20079;-61
2022/06/29 02:59:22;;;;;;;6.47;5.57;;;13.10;99.90;;;;;;5047169;28;20386;-62
2022/06/29 03:01:47;;;;;;;7.82;7.03;;;13.00;99.90;;;;;;5046211;28;20076;-61
2022/06/29 03:04:13;;;;;;;7.00;6.25;;;12.90;99.90;;;;;;5046627;28;20044;-62
2022/06/29 03:06:39;;;;;;;7.47;6.78;;;13.00;99.90;;;;;;5065036;28;20101;-61
2022/06/29 03:09:05;;;;;;;7.97;7.05;;;13.00;99.90;;;;;;5048020;28;20044;-61
2022/06/29 03:11:31;;;;;;;6.68;5.85;;;12.90;99.90;;;;;;5047061;28;20055;-61
2022/06/29 03:13:57;;;;;;;7.50;6.80;;;13.10;99.90;;;;;;5065111;28;20067;-62
2022/06/29 03:16:24;;;;;;;7.70;7.00;;;12.90;99.90;;;;;;5075199;28;20613;-61
2022/06/29 03:18:50;;;;;;;6.00;5.35;;;13.00;99.90;;;;;;5064299;28;20057;-62
2022/06/29 03:21:16;;;;;;;5.85;5.35;;;13.00;99.90;;;;;;5046675;28;20041;-61
2022/06/29 03:23:43;;;;;;;5.03;4.47;;;12.90;99.90;;;;;;5064799;28;20056;-62
2022/06/29 03:26:10;;;;;;;8.68;4.60;;;12.90;99.90;;;;;;5046236;28;20488;-62
2022/06/29 03:28:36;;;;;;;5.18;4.68;;;12.70;99.90;;;;;;5064083;28;20040;-62
2022/06/29 03:31:01;;;;;;;6.63;4.82;;;12.70;99.90;;;;;;5064654;28;20083;-62
2022/06/29 03:33:27;;;;;;;5.38;4.82;;;12.70;99.90;;;;;;5062042;28;20049;-61
2022/06/29 03:35:53;;;;;;;5.18;4.68;;;12.70;99.90;;;;;;5062335;28;20045;-62
2022/06/29 03:38:18;;;;;;;6.38;5.78;;;12.80;99.90;;;;;;5046486;28;20057;-62
2022/06/29 03:40:44;;;;;;;7.13;5.90;;;12.80;99.90;;;;;;5046183;28;20501;-62
2022/06/29 03:43:10;;;;;;;6.03;5.53;;;12.90;99.90;;;;;;5062996;28;20132;-62
2022/06/29 03:45:36;;;;;;;6.88;6.00;;;12.90;99.90;;;;;;5063244;28;20041;-62
2022/06/29 03:48:02;;;;;;;8.75;7.43;;;12.90;99.90;;;;;;5046049;28;20051;-62
2022/06/29 03:50:28;;;;;;;8.70;7.90;;;13.10;99.90;;;;;;5033205;28;20049;-62
2022/06/29 03:52:53;;;;;;;9.55;7.93;;;13.20;99.90;;;;;;5064516;28;20049;-62
2022/06/29 03:55:19;;;;;;;9.52;8.35;;;13.20;99.90;;;;;;5064836;28;20105;-62
2022/06/29 03:57:45;;;;;;;8.82;7.50;;;13.40;99.90;;;;;;5047518;28;20041;-62
2022/06/29 04:00:11;;;;;;;10.10;6.63;;;13.50;99.90;;;;;;5064992;28;20695;-62
2022/06/29 04:02:37;;;;;;;10.82;6.85;;;13.60;99.90;;;;;;5065375;28;20225;-61
2022/06/29 04:05:04;;;;;;;8.98;6.80;;;13.60;99.90;;;;;;5047047;28;20080;-62
2022/06/29 04:07:34;;;;;;;8.35;7.55;;;13.50;99.90;;;;;;5063563;28;20096;-62
2022/06/29 04:10:00;;;;;;;7.72;7.07;;;13.60;99.90;;;;;;5047032;28;20056;-62
2022/06/29 04:12:30;;;;;;;7.20;6.50;;;13.50;99.90;;;;;;5047865;28;20068;-62
2022/06/29 04:14:57;;;;;;;7.90;7.15;;;13.50;99.90;;;;;;5073967;28;20070;-61
2022/06/29 04:17:22;;;;;;;9.25;7.82;;;13.50;99.90;;;;;;5049932;28;20125;-62
2022/06/29 04:19:48;;;;;;;10.50;9.50;;;13.50;99.90;;;;;;5054236;28;20057;-62
2022/06/29 04:22:14;;;;;;;10.40;8.07;;;13.60;99.90;;;;;;5068107;28;20041;-61
2022/06/29 04:24:39;;;;;;;7.65;6.30;;;13.60;99.90;;;;;;5050576;28;20057;-62
2022/06/29 04:27:05;;;;;;;6.95;6.25;;;13.50;99.90;;;;;;5067454;28;20039;-62
2022/06/29 04:29:31;;;;;;;7.45;6.78;;;13.60;99.90;;;;;;5049557;28;20224;-61
2022/06/29 04:31:56;;;;;;;10.55;8.30;;;13.50;99.90;;;;;;5067703;28;20044;-62
2022/06/29 04:34:22;;;;;;;8.70;7.88;;;13.50;99.90;;;;;;5050572;28;20052;-62
2022/06/29 04:36:48;;;;;;;9.30;8.38;;;13.60;99.90;;;;;;5054601;28;20041;-62
2022/06/29 04:39:14;;;;;;;10.18;9.13;;;13.70;99.90;;;;;;5067275;28;20080;-61
2022/06/29 04:41:39;;;;;;;10.77;9.68;;;13.80;99.90;;;;;;5050678;28;20060;-61
2022/06/29 04:44:05;;;;;;;10.90;9.90;;;13.90;99.90;;;;;;5049205;28;20041;-62
2022/06/29 04:46:31;;;;;;;10.45;9.50;;;14.00;99.90;;;;;;5066837;28;20056;-61
2022/06/29 04:48:59;;;;;;;11.48;10.27;;;14.00;99.90;;;;;;5067473;28;20037;-61
2022/06/29 04:51:27;;;;;;;11.30;10.18;;;14.20;99.90;;;;;;5049519;28;20049;-62
2022/06/29 04:53:54;;;;;;;11.82;9.57;;;14.30;99.90;;;;;;5049564;28;20473;-61
2022/06/29 04:56:21;;;;;;;11.85;10.00;;;14.40;99.90;;;;;;5048907;28;20286;-61
2022/06/29 04:58:47;;;;;;;12.57;9.70;;;14.50;99.90;;;;;;5067130;28;20053;-62
2022/06/29 05:01:12;;;;;;;10.52;9.40;;;14.60;99.90;;;;;;5048910;28;20051;-62
2022/06/29 05:03:38;;;;;;;10.35;9.35;;;14.70;99.90;;;;;;5067603;28;20049;-62
2022/06/29 05:06:04;;;;;;;11.23;9.55;;;14.80;99.90;;;;;;5049579;28;20048;-62
2022/06/29 05:08:30;;;;;;;11.02;9.88;;;14.80;99.90;;;;;;5049443;28;20052;-62
2022/06/29 05:10:56;;;;;;;10.30;9.30;;;14.90;99.90;;;;;;5066747;28;20041;-62
2022/06/29 05:13:21;;;;;;;11.00;9.88;;;15.00;99.90;;;;;;5049284;28;20071;-61
2022/06/29 05:15:47;;;;;;;10.95;9.52;;;15.10;99.90;;;;;;5062285;28;20049;-61
2022/06/29 05:18:13;;;;;;;10.25;8.95;;;15.10;99.90;;;;;;5059363;28;20045;-62
2022/06/29 05:20:39;;;;;;;9.63;8.82;;;15.30;99.90;;;;;;5063708;28;20041;-61
2022/06/29 05:23:04;;;;;;;11.32;9.90;;;15.20;99.90;;;;;;5067061;28;20080;-62
2022/06/29 05:25:31;;;;;;;26.60;25.02;;;15.30;99.90;;;;;;5017480;28;20072;-61
2022/06/29 05:27:57;;;;;;;12.48;10.40;;;15.20;99.90;;;;;;5043617;28;20131;-61
2022/06/29 05:30:23;;;;;;;13.05;10.00;;;15.20;99.90;;;;;;5063660;28;20413;-61
2022/06/29 05:32:49;;;;;;;13.85;11.50;;;15.20;99.90;;;;;;5048886;28;20071;-61
2022/06/29 05:35:14;;;;;;;12.23;11.02;;;15.20;99.90;;;;;;5068167;28;20044;-60
2022/06/29 05:37:40;;;;;;;11.85;10.70;;;15.30;99.90;;;;;;5065512;28;20037;-61
2022/06/29 05:40:06;;;;;;;11.90;10.80;;;15.40;99.90;;;;;;5047420;28;20091;-60
2022/06/29 05:42:32;;;;;;;13.35;11.80;;;15.40;99.90;;;;;;5064141;28;20420;-60
2022/06/29 05:44:57;;;;;;;12.38;11.15;;;15.50;99.90;;;;;;5064138;28;20067;-61
2022/06/29 05:47:23;;;;;;;16.27;11.50;;;15.50;99.90;;;;;;5062820;28;20067;-61
2022/06/29 05:49:49;;;;;;;11.70;10.50;;;15.80;99.90;;;;;;5060076;28;20069;-61
2022/06/29 05:52:15;;;;;;;12.20;11.07;;;15.60;99.90;;;;;;5047217;28;20045;-61
2022/06/29 05:54:40;;;;;;;13.32;11.93;;;15.80;99.90;;;;;;5048675;28;20045;-61
2022/06/29 05:57:06;;;;;;;12.68;11.48;;;15.80;99.90;;;;;;5065251;28;20041;-61
2022/06/29 05:59:33;;;;;;;12.13;11.00;;;15.90;99.90;;;;;;5048245;28;20052;-61
2022/06/29 06:01:58;;;;;;;12.30;10.70;;;16.10;99.90;;;;;;5064333;28;20045;-61
2022/06/29 06:04:25;;;;;;;11.25;10.15;;;16.00;99.90;;;;;;5046532;28;20040;-61
2022/06/29 06:06:51;;;;;;;10.50;9.50;;;16.30;99.90;;;;;;5063085;28;20141;-61
2022/06/29 06:09:21;;;;;;;11.60;10.60;;;16.20;99.90;;;;;;5079637;28;20162;-61
2022/06/29 06:11:47;;;;;;;11.40;10.20;;;16.40;99.90;;;;;;5045186;28;20059;-61
2022/06/29 06:14:13;;;;;;;9.85;8.85;;;16.40;99.90;;;;;;5045113;28;20512;-62
2022/06/29 06:16:38;;;;;;;10.13;8.85;;;16.50;99.90;;;;;;5045490;28;20045;-61
2022/06/29 06:19:04;;;;;;;12.35;9.05;;;16.60;99.90;;;;;;5039781;28;20088;-61
2022/06/29 06:21:30;;;;;;;9.25;8.40;;;16.80;99.90;;;;;;5041018;28;20470;-62
2022/06/29 06:23:55;;;;;;;10.05;7.45;;;16.80;99.90;;;;;;5049878;28;20447;-62
2022/06/29 06:26:21;;;;;;;8.82;7.95;;;16.90;99.90;;;;;;5033087;28;20291;-61
2022/06/29 06:28:47;;;;;;;8.60;7.80;;;17.10;99.90;;;;;;5046266;28;20051;-62
2022/06/29 06:31:12;;;;;;;8.38;6.90;;;17.10;99.90;;;;;;5043484;28;20132;-61
2022/06/29 06:33:38;;;;;;;9.35;7.80;;;17.20;99.90;;;;;;5040142;28;20052;-62
2022/06/29 06:36:04;;;;;;;8.30;7.50;;;17.30;99.90;;;;;;5029656;28;20071;-62
2022/06/29 06:38:29;;;;;;;6.97;6.35;;;17.40;99.90;;;;;;5056624;28;20099;-62
2022/06/29 06:43:39;;;;;;;6.05;5.45;;;17.60;99.90;;;;;;5062333;28;20052;-62
2022/06/29 06:46:05;;;;;;;7.05;5.55;;;17.70;99.90;;;;;;5043243;28;20040;-61
2022/06/29 06:48:31;;;;;;;7.82;5.13;;;17.50;99.90;;;;;;5050573;28;20060;-61
2022/06/29 06:50:57;;;;;;;6.15;4.82;;;17.80;99.90;;;;;;5041759;28;20101;-61
2022/06/29 06:53:23;;;;;;;6.05;5.30;;;17.90;99.90;;;;;;5061476;28;20147;-61
2022/06/29 06:55:49;;;;;;;7.53;5.50;;;17.90;99.90;;;;;;5039492;28;20049;-61
2022/06/29 06:58:14;;;;;;;6.22;5.22;;;18.00;99.90;;;;;;5047167;28;20044;-61
2022/06/29 07:00:40;;;;;;;8.23;5.18;;;18.00;99.90;;;;;;5055540;28;20053;-61
2022/06/29 07:03:06;;;;;;;5.45;4.68;;;18.10;99.90;;;;;;5040920;28;20475;-61
2022/06/29 07:05:32;;;;;;;6.60;5.10;;;18.10;99.90;;;;;;5037980;28;20045;-61
2022/06/29 07:07:58;;;;;;;7.20;4.82;;;18.10;99.90;;;;;;5049096;28;20114;-62
2022/06/29 07:10:24;;;;;;;5.80;5.28;;;18.30;99.90;;;;;;5036276;28;20967;-61
2022/06/29 07:12:49;;;;;;;8.23;5.60;;;18.50;99.90;;;;;;5049470;28;20422;-62
2022/06/29 07:15:15;;;;;;;6.22;4.63;;;18.50;99.90;;;;;;5061667;28;20544;-62
2022/06/29 07:17:41;;;;;;;4.97;4.47;;;18.60;99.90;;;;;;5067677;28;20190;-63
2022/06/29 07:20:08;;;;;;;7.55;4.50;;;18.70;99.90;;;;;;5036157;28;20098;-61
2022/06/29 07:22:34;;;;;;;6.32;4.55;;;18.70;99.90;;;;;;5070233;28;20094;-61
2022/06/29 07:24:59;;;;;;;7.18;5.22;;;18.80;99.90;;;;;;5032687;28;20125;-63
2022/06/29 07:27:25;;;;;;;6.35;5.30;;;18.80;99.90;;;;;;5041233;28;20087;-61
2022/06/29 07:29:53;;;;;;;6.90;5.00;;;18.90;99.90;;;;;;5049983;28;20076;-62
2022/06/29 07:32:20;;;;;;;6.03;4.35;;;19.10;99.90;;;;;;5054588;28;20053;-61
2022/06/29 07:34:46;;;;;;;6.72;4.45;;;19.10;99.90;;;;;;5043288;28;20072;-61
2022/06/29 07:37:11;;;;;;;7.25;5.18;;;19.00;99.90;;;;;;5047966;28;20064;-61
2022/06/29 07:39:37;;;;;;;6.60;5.05;;;19.10;99.90;;;;;;5055975;28;20049;-61
2022/06/29 07:42:03;;;;;;;4.97;4.47;;;19.30;99.90;;;;;;5045405;28;20057;-61
2022/06/29 07:44:29;;;;;;;5.80;3.92;;;19.30;99.90;;;;;;5058984;28;20069;-61
2022/06/29 07:46:55;;;;;;;5.80;4.88;;;19.30;99.90;;;;;;5046720;28;20135;-61
2022/06/29 07:49:21;;;;;;;4.78;4.20;;;19.40;99.90;;;;;;5056394;28;20045;-61
2022/06/29 07:51:47;;;;;;;5.57;3.88;;;19.50;99.90;;;;;;5044138;28;20045;-62
2022/06/29 07:54:13;;;;;;;5.75;4.72;;;19.60;99.90;;;;;;5039312;28;20044;-61
2022/06/29 07:56:39;;;;;;;6.82;4.40;;;19.70;99.90;;;;;;5060422;28;20748;-62
2022/06/29 07:59:05;;;;;;;5.88;4.20;;;19.80;99.90;;;;;;5054489;28;20052;-62
2022/06/29 08:01:31;;;;;;;7.47;4.43;;;19.90;99.90;;;;;;5059369;28;20045;-62
2022/06/29 08:03:57;;;;;;;5.38;4.15;;;19.90;99.90;;;;;;5057751;28;20068;-61
2022/06/29 08:06:24;;;;;;;4.47;3.60;;;19.90;99.90;;;;;;5040709;28;20138;-61
2022/06/29 08:08:50;;;;;;;5.22;3.90;;;20.00;99.90;;;;;;5039900;28;20057;-62
2022/06/29 08:11:15;;;;;;;4.28;3.47;;;20.20;99.90;;;;;;5055005;28;20044;-61
2022/06/29 08:13:41;;;;;;;5.55;2.95;;;20.20;99.90;;;;;;5062118;28;20173;-62
2022/06/29 08:16:07;;;;;;;5.40;3.40;;;20.40;99.90;;;;;;5042716;28;20098;-61
2022/06/29 08:18:34;;;;;;;4.85;3.63;;;20.50;99.90;;;;;;5060703;28;20103;-61
2022/06/29 08:21:01;;;;;;;5.70;3.28;;;20.60;99.90;;;;;;5052843;28;20131;-61
2022/06/29 08:23:27;;;;;;;4.68;3.53;;;20.90;99.90;;;;;;5062392;28;20232;-61
2022/06/29 08:25:52;;;;;;;5.50;3.70;;;21.20;99.90;;;;;;5037909;28;20072;-62
2022/06/29 08:28:18;;;;;;;8.23;3.50;;;21.20;99.90;;;;;;5062917;28;20040;-62
2022/06/29 08:30:44;;;;;;;4.53;3.38;;;21.50;99.90;;;;;;5053489;28;20068;-62
2022/06/29 08:33:10;;;;;;;5.60;3.22;;;21.50;99.90;;;;;;5063448;28;20421;-61
2022/06/29 08:35:35;;;;;;;4.13;3.20;;;21.60;99.90;;;;;;5051771;28;20147;-62
2022/06/29 08:38:02;;;;;;;4.68;3.50;;;21.50;99.90;;;;;;5057303;28;20225;-62
2022/06/29 08:40:35;;;;;;;5.13;3.20;;;21.60;99.90;;;;;;5021382;28;20075;-61
2022/06/29 08:43:00;;;;;;;4.18;3.33;;;21.70;99.90;;;;;;5035758;28;20618;-61
2022/06/29 08:45:26;;;;;;;3.58;3.10;;;21.70;99.90;;;;;;5025912;28;20049;-62
2022/06/29 08:47:52;;;;;;;5.10;3.40;;;21.80;99.90;;;;;;5017177;28;20172;-62
2022/06/29 08:50:18;;;;;;;4.53;3.00;;;21.80;99.90;;;;;;5024261;28;20056;-62
2022/06/29 08:52:46;;;;;;;3.63;3.03;;;21.90;99.90;;;;;;5034141;28;20047;-62
2022/06/29 08:55:12;;;;;;;4.22;3.30;;;21.90;99.90;;;;;;5027001;28;20053;-62
2022/06/29 08:57:40;;;;;;;4.68;3.00;;;22.00;99.90;;;;;;5034000;28;20076;-62
2022/06/29 09:00:08;;;;;;;3.42;3.00;;;22.00;99.90;;;;;;5009291;28;20049;-62
2022/06/29 09:02:34;;;;;;;3.38;3.08;;;22.10;99.90;;;;;;5057414;28;20037;-62
2022/06/29 09:04:59;;;;;;;7.63;3.63;;;22.10;99.90;;;;;;5047471;28;20053;-62
2022/06/29 09:07:26;;;;;;;4.25;3.30;;;22.30;99.90;;;;;;5042562;28;20059;-61
2022/06/29 09:10:11;;;;;;;6.03;3.20;;;22.30;99.90;;;;;;5060437;28;20167;-62
2022/06/29 09:12:37;;;;;;;4.60;3.08;;;22.30;99.90;;;;;;5010510;28;20075;-61
2022/06/29 09:15:05;;;;;;;4.40;3.13;;;22.40;99.90;;;;;;5039055;28;20048;-62
2022/06/29 09:17:32;;;;;;;5.82;3.30;;;22.80;99.90;;;;;;5059228;28;20053;-62
2022/06/29 09:19:59;;;;;;;4.88;3.15;;;22.80;99.90;;;;;;5042506;28;20045;-62
2022/06/29 09:22:25;;;;;;;7.30;3.72;;;22.60;99.90;;;;;;5014150;28;20077;-61
2022/06/29 09:24:51;;;;;;;6.25;3.30;;;22.70;99.90;;;;;;5058457;28;20052;-61
2022/06/29 09:27:18;;;;;;;5.72;3.65;;;22.80;99.90;;;;;;5027791;28;20053;-61
2022/06/29 09:29:44;;;;;;;4.57;3.33;;;22.80;99.90;;;;;;5040167;28;20049;-61
2022/06/29 09:32:16;;;;;;;3.45;3.13;;;22.90;99.90;;;;;;5038521;28;20116;-61
2022/06/29 09:34:44;;;;;;;3.60;3.20;;;22.90;99.90;;;;;;5043714;28;20072;-61
2022/06/29 09:37:21;;;;;;;5.90;3.72;;;23.00;99.90;;;;;;5043807;28;20132;-61
2022/06/29 09:39:51;;;;;;;5.55;3.33;;;23.00;99.90;;;;;;5037974;28;20087;-61
2022/06/29 09:42:26;;;;;;;4.68;3.00;;;22.90;99.90;;;;;;5033632;28;20055;-61
2022/06/29 09:44:52;;;;;;;6.00;3.20;;;23.00;99.90;;;;;;5061114;28;20072;-61
2022/06/29 09:47:20;;;;;;;4.80;3.17;;;23.10;99.90;;;;;;5040589;28;20477;-61
2022/06/29 09:49:51;;;;;;;5.32;3.30;;;23.00;99.90;;;;;;5050849;28;20044;-61
2022/06/29 09:52:19;;;;;;;4.55;3.50;;;22.90;99.90;;;;;;5046720;28;20059;-61
2022/06/29 09:54:59;;;;;;;4.85;3.30;;;23.00;99.90;;;;;;5040879;28;20045;-61
2022/06/29 09:57:30;;;;;;;4.85;3.40;;;23.20;99.90;;;;;;5030545;28;20050;-61
2022/06/29 10:02:45;;;;;;;;;;;23.40;99.90;;;;;;4999499;28;20041;-61
2022/06/29 10:05:12;;;;;;;7.57;3.60;;;23.50;99.90;;;;;;5029512;28;19932;-62
2022/06/29 10:07:40;;;;;;;4.72;3.33;;;23.70;99.90;;;;;;5040004;28;20046;-61
2022/06/29 10:10:09;;;;;;;5.40;3.30;;;23.70;99.90;;;;;;5043521;28;20482;-62
2022/06/29 10:15:56;;;;;;;5.88;3.10;;;24.00;99.90;;;;;;5005052;28;20567;-61
2022/06/29 10:18:43;;;;;;;3.92;3.10;;;24.10;99.90;;;;;;4998618;28;20454;-62
2022/06/29 10:21:25;;;;;;;3.50;3.20;;;24.20;99.90;;;;;;5000643;28;20038;-61
2022/06/29 10:23:55;;;;;;;8.00;5.45;;;24.30;99.90;;;;;;5021764;28;20045;-62
2022/06/29 10:26:34;;;;;;;7.80;5.38;;;24.30;99.90;;;;;;5009430;28;20054;-61
2022/06/29 10:29:06;;;;;;;4.18;3.78;;;24.40;99.90;;;;;;5017354;28;20049;-62
2022/06/29 10:31:59;;;;;;;6.75;5.28;;;24.50;99.90;;;;;;5007379;28;20522;-61
2022/06/29 10:34:31;;;;;;;5.78;4.35;;;24.60;99.90;;;;;;5017025;28;20053;-61
2022/06/29 10:37:03;;;;;;;9.02;6.47;;;24.70;99.90;;;;;;4989968;28;20053;-62
2022/06/29 10:39:49;;;;;;;7.28;6.50;;;24.70;99.90;;;;;;4996530;28;20053;-61
2022/06/29 10:45:25;;;;;;;4.70;3.63;;;24.80;99.90;;;;;;4998675;28;20598;-62
2022/06/29 10:47:58;;;;;;;4.57;2.97;;;24.90;99.90;;;;;;4994226;28;20080;-62
2022/06/29 10:50:28;;;;;;;4.63;3.10;;;24.90;99.90;;;;;;4993385;28;20097;-62
2022/06/29 10:53:02;;;;;;;4.22;2.92;;;25.00;99.90;;;;;;5020369;28;20048;-62
2022/06/29 10:55:30;;;;;;;3.92;3.47;;;25.10;99.90;;;;;;5000623;28;20566;-62
2022/06/29 10:57:57;;;;;;;3.40;3.10;;;25.10;99.90;;;;;;5033878;28;20058;-62
2022/06/29 11:00:24;;;;;;;4.32;3.88;;;25.20;99.90;;;;;;5029628;28;20041;-62
2022/06/29 11:02:51;;;;;;;3.60;3.30;;;25.20;99.90;;;;;;5022030;28;20048;-61
2022/06/29 11:05:17;;;;;;;3.28;2.92;;;25.20;99.90;;;;;;5022860;28;20608;-64
2022/06/29 11:12:01;;;;;;;6.32;3.90;;;25.60;99.90;;;;;;4997221;28;20056;-62
2022/06/29 11:13:26;;;;;;;12.43;3.90;;;25.70;99.90;;;;;;5034334;28;20065;-62
2022/06/29 11:15:54;;;;;;;3.72;3.40;;;25.90;99.90;;;;;;5027622;28;20118;-63
2022/06/29 11:19:51;;;;;;;4.40;3.87;;;;;;;;;;5109236;27;1250389;-61
2022/06/29 11:22:18;;;;;;;3.58;3.28;;;26.10;99.90;;;;;;5074660;28;20044;-61
2022/06/29 11:24:57;;;;;;;4.00;3.60;;;26.10;99.90;;;;;;5069943;28;20156;-60
2022/06/29 11:27:49;;;;;;;4.82;3.97;;;26.00;99.90;;;;;;5035908;28;20188;-61
2022/06/29 11:30:21;;;;;;;5.18;3.72;;;26.00;99.90;;;;;;5032745;28;20095;-61
2022/06/29 11:32:49;;;;;;;5.25;3.95;;;25.90;99.90;;;;;;5051745;28;20059;-61
2022/06/29 11:35:18;;;;;;;4.97;4.15;;;26.10;99.90;;;;;;5070692;28;20053;-61
2022/06/29 11:37:57;;;;;;;4.72;4.20;;;26.20;99.90;;;;;;5042742;28;20088;-61
2022/06/29 11:40:35;;;;;;;7.47;4.35;;;26.20;99.90;;;;;;5052635;28;20075;-60
2022/06/29 11:43:16;;;;;;;5.20;4.65;;;26.20;99.90;;;;;;5056745;28;20045;-61
2022/06/29 11:45:45;;;;;;;4.20;3.90;;;26.20;99.90;;;;;;5043497;28;20057;-60
2022/06/29 11:48:25;;;;;;;6.07;4.03;;;26.10;99.90;;;;;;5067817;28;20040;-61
2022/06/29 11:50:53;;;;;;;5.50;5.00;;;26.20;99.90;;;;;;5043129;28;20064;-61
2022/06/29 11:53:39;;;;;;;5.30;4.75;;;26.40;99.90;;;;;;5050466;28;20056;-61
2022/06/29 11:56:09;;;;;;;6.60;4.47;;;26.40;99.90;;;;;;5046398;28;20080;-61
2022/06/29 11:58:36;;;;;;;4.45;3.83;;;26.40;99.90;;;;;;5077030;28;20052;-61
2022/06/29 12:01:07;;;;;;;6.70;4.50;;;26.40;99.90;;;;;;5052101;28;20040;-61
2022/06/29 12:03:32;;;;;;;5.50;4.10;;;26.50;99.90;;;;;;5062327;28;20053;-61
2022/06/29 12:06:00;;;;;;;4.15;3.75;;;26.50;99.90;;;;;;5064088;28;20153;-61
2022/06/29 12:08:32;;;;;;;5.90;4.10;;;26.40;99.90;;;;;;5076960;28;20107;-61
2022/06/29 12:10:58;;;;;;;4.70;3.83;;;26.30;99.90;;;;;;5058131;28;20432;-61
2022/06/29 12:13:24;;;;;;;5.75;4.50;;;26.30;99.90;;;;;;5049843;28;20052;-61
2022/06/29 12:15:50;;;;;;;6.07;3.83;;;26.40;99.90;;;;;;5042575;28;20474;-61
2022/06/29 12:18:16;;;;;;;6.90;4.22;;;26.40;99.90;;;;;;5042319;28;20060;-61
2022/06/29 12:20:43;;;;;;;7.57;4.20;;;26.70;99.90;;;;;;5043575;28;20053;-62
2022/06/29 12:23:09;;;;;;;7.20;4.38;;;27.00;99.90;;;;;;5069340;28;20083;-61
2022/06/29 12:25:35;;;;;;;7.05;4.45;;;26.80;99.90;;;;;;5052594;28;20520;-63
2022/06/29 12:28:02;;;;;;;5.60;4.55;;;26.80;99.90;;;;;;5051246;28;20044;-61
2022/06/29 12:30:28;;;;;;;8.18;4.38;;;26.70;99.90;;;;;;5043060;28;20649;-61
2022/06/29 12:32:54;;;;;;;11.50;4.95;;;26.70;99.90;;;;;;5062401;28;20116;-61
2022/06/29 12:35:19;;;;;;;4.97;4.28;;;26.50;99.90;;;;;;5038552;28;20049;-61
2022/06/29 12:37:46;;;;;;;7.00;4.85;;;26.50;99.90;;;;;;5064166;28;20053;-61
2022/06/29 12:40:12;;;;;;;7.60;4.95;;;26.50;99.90;;;;;;5037768;28;20060;-62
2022/06/29 12:42:39;;;;;;;4.60;4.20;;;26.90;99.90;;;;;;5057791;28;20467;-62
2022/06/29 12:45:06;;;;;;;4.63;3.90;;;26.80;99.90;;;;;;5039740;28;20049;-61
2022/06/29 12:47:31;;;;;;;6.28;4.20;;;26.90;99.90;;;;;;5065338;28;20049;-61
2022/06/29 12:49:57;;;;;;;4.93;4.35;;;26.90;99.90;;;;;;5036105;28;20055;-62
2022/06/29 12:52:23;;;;;;;5.18;4.68;;;27.10;99.90;;;;;;5059532;28;20053;-61
2022/06/29 12:54:49;;;;;;;4.28;3.88;;;27.30;99.90;;;;;;5040318;28;20041;-61
2022/06/29 12:57:18;;;;;;;5.68;4.57;;;27.40;99.90;;;;;;5050187;28;20117;-62
2022/06/29 12:59:44;;;;;;;9.65;4.88;;;27.60;99.90;;;;;;5021449;28;20058;-62
2022/06/29 13:02:10;;;;;;;8.48;5.07;;;27.90;99.90;;;;;;5063997;28;20052;-62
2022/06/29 13:04:36;;;;;;;5.63;4.28;;;27.80;99.70;;;;;;5045158;28;20038;-61